Time;durP1;ratioP1;P1;durP2;ratioP2;P2;SDS_P1;SDS_P2;PMS_P1;PMS_P2;Temp;Humidity;BMP_temperature;BMP_pressure;BME280_temperature;BME280_humidity;BME280_pressure;Samples;Min_cycle;Max_cycle;Signal;HPM_P1;HPM_P2
2022/05/13 00:01:20;;;;;;;13.90;9.45;;;;;;;-144.47;100.00;61586.06;5092308;28;20084;-79
2022/05/13 00:03:46;;;;;;;9.30;8.40;;;;;;;-144.47;100.00;61586.06;5091820;28;20107;-79
2022/05/13 00:06:12;;;;;;;11.45;9.02;;;;;;;-144.47;100.00;61586.06;5091215;28;20115;-79
2022/05/13 00:08:38;;;;;;;9.25;8.30;;;;;;;-144.47;100.00;61586.06;5091907;28;20050;-77
2022/05/13 00:11:06;;;;;;;16.27;9.00;;;;;;;-144.47;100.00;61586.06;5090247;28;20032;-78
2022/05/13 00:13:32;;;;;;;13.93;8.90;;;;;;;-144.47;100.00;61586.06;5091293;28;20025;-78
2022/05/13 00:15:59;;;;;;;14.10;9.27;;;;;;;-144.47;100.00;61586.06;5092124;28;20043;-79
2022/05/13 00:18:25;;;;;;;11.13;9.55;;;;;;;-144.47;100.00;61586.06;5091039;28;20389;-79
2022/05/13 00:20:51;;;;;;;13.25;10.38;;;;;;;-144.47;100.00;61586.06;5092165;28;20028;-78
2022/05/13 00:23:17;;;;;;;15.30;9.85;;;;;;;-144.47;100.00;61586.06;5091909;28;20028;-78
2022/05/13 00:25:43;;;;;;;13.05;10.15;;;;;;;-144.47;100.00;61586.06;5091206;28;20036;-80
2022/05/13 00:28:09;;;;;;;15.57;9.90;;;;;;;-144.47;100.00;61586.06;5092100;28;20494;-78
2022/05/13 00:30:39;;;;;;;10.43;9.43;;;;;;;-144.47;100.00;61586.06;5091384;28;20555;-78
2022/05/13 00:33:05;;;;;;;11.07;9.97;;;;;;;-144.47;100.00;61586.06;5091853;28;20035;-78
2022/05/13 00:35:30;;;;;;;14.85;9.98;;;;;;;16.61;100.00;61586.06;5091262;28;20043;-78
2022/05/13 00:37:56;;;;;;;11.70;9.93;;;;;;;-144.47;100.00;61586.06;5091747;28;20020;-78
2022/05/13 00:40:22;;;;;;;13.95;10.50;;;;;;;-144.47;100.00;61586.06;5091444;28;20031;-78
2022/05/13 00:42:49;;;;;;;12.20;8.90;;;;;;;-144.47;100.00;61586.06;5087690;28;20115;-77
2022/05/13 00:45:16;;;;;;;12.27;9.55;;;;;;;17.37;100.00;61586.06;5090811;28;20088;-77
2022/05/13 00:47:43;;;;;;;11.55;9.05;;;;;;;-144.47;100.00;61586.06;5091754;28;20093;-78
2022/05/13 00:50:11;;;;;;;9.10;8.20;;;;;;;-144.47;100.00;61586.06;5092287;28;20047;-78
2022/05/13 00:52:40;;;;;;;10.07;7.90;;;;;;;-144.47;100.00;61586.06;5092026;28;20031;-78
2022/05/13 00:55:12;;;;;;;9.55;8.75;;;;;;;-144.47;100.00;61586.06;5091901;28;20484;-78
2022/05/13 00:57:39;;;;;;;13.85;9.02;;;;;;;-144.47;100.00;61586.06;5090195;28;20117;-78
2022/05/13 01:00:11;;;;;;;11.50;9.32;;;;;;;-144.47;100.00;61586.06;5090003;28;20024;-78
2022/05/13 01:02:36;;;;;;;11.07;8.50;;;;;;;-144.47;100.00;61586.06;5090131;28;20527;-78
2022/05/13 01:05:05;;;;;;;9.82;8.30;;;;;;;-144.47;100.00;61586.06;5091720;28;20032;-78
2022/05/13 01:07:32;;;;;;;14.10;9.43;;;;;;;-144.47;100.00;61586.06;5092227;28;20028;-79
2022/05/13 01:10:01;;;;;;;9.27;7.82;;;;;;;-144.47;100.00;61586.06;5093449;28;20089;-78
2022/05/13 01:12:32;;;;;;;13.50;9.30;;;;;;;-144.47;100.00;61586.06;5094573;28;20101;-78
2022/05/13 01:15:05;;;;;;;11.23;8.93;;;;;;;-144.47;100.00;61586.06;5092584;28;20408;-78
2022/05/13 01:20:22;;;;;;;9.25;8.45;;;;;;;-144.47;100.00;61586.06;5088870;28;20036;-78
2022/05/13 01:22:53;;;;;;;16.02;8.60;;;;;;;-144.47;100.00;61586.06;5094772;28;20032;-78
2022/05/13 01:25:24;;;;;;;13.52;10.32;;;;;;;-144.47;100.00;61586.06;5090285;28;20115;-78
2022/05/13 01:27:51;;;;;;;15.48;9.18;;;;;;;-144.47;100.00;61586.06;5092615;28;20035;-76
2022/05/13 01:30:26;;;;;;;13.65;9.55;;;;;;;-144.47;100.00;61586.06;5113978;28;20032;-78
2022/05/13 01:32:51;;;;;;;13.90;10.40;;;;;;;-144.47;100.00;61586.06;5111730;28;20032;-77
2022/05/13 01:35:17;;;;;;;14.65;9.63;;;;;;;-144.47;100.00;61586.06;5115644;28;20061;-79
2022/05/13 01:37:43;;;;;;;12.70;9.93;;;;;;;187.31;100.00;61586.06;5118832;28;20089;-79
2022/05/13 01:40:09;;;;;;;13.45;9.60;;;;;;;-144.47;100.00;61586.06;5117544;28;20020;-79
2022/05/13 01:42:35;;;;;;;14.30;10.00;;;;;;;16.08;100.00;61586.06;5116952;28;20028;-78
2022/05/13 01:45:01;;;;;;;13.57;9.98;;;;;;;-144.47;100.00;61586.06;5103937;28;20035;-79
2022/05/13 01:47:27;;;;;;;14.57;10.35;;;;;;;16.08;100.00;61586.06;5094943;28;20111;-79
2022/05/13 01:49:53;;;;;;;13.63;9.77;;;;;;;-144.47;100.00;61586.06;5096498;28;20036;-77
2022/05/13 01:52:19;;;;;;;10.43;9.43;;;;;;;-144.47;100.00;61586.06;5096930;28;20016;-78
2022/05/13 01:54:45;;;;;;;13.32;9.80;;;;;;;187.31;100.00;61586.06;5095925;28;20028;-77
2022/05/13 01:57:11;;;;;;;17.50;10.25;;;;;;;-144.47;100.00;61586.06;5096358;28;20032;-78
2022/05/13 01:59:36;;;;;;;13.95;10.73;;;;;;;-144.47;100.00;61586.06;5096157;28;20388;-79
2022/05/13 02:02:02;;;;;;;14.35;10.43;;;;;;;-144.47;100.00;61586.06;5096704;28;20427;-78
2022/05/13 02:04:27;;;;;;;13.82;10.43;;;;;;;187.31;100.00;61586.06;5095804;28;20564;-78
2022/05/13 02:06:53;;;;;;;12.35;9.88;;;;;;;-144.47;100.00;61586.06;5095178;28;20111;-78
2022/05/13 02:09:18;;;;;;;17.58;10.05;;;;;;;-144.47;100.00;61586.06;5093083;28;20462;-77
2022/05/13 02:11:45;;;;;;;12.85;9.60;;;;;;;-144.47;100.00;61586.06;5094427;28;20024;-78
2022/05/13 02:14:16;;;;;;;14.93;9.82;;;;;;;21.26;100.00;61586.06;5094873;28;20020;-78
2022/05/13 02:16:41;;;;;;;13.02;9.20;;;;;;;-144.47;100.00;61586.06;5076229;28;20032;-78
2022/05/13 02:19:07;;;;;;;11.70;9.43;;;;;;;-144.47;100.00;61586.06;5093387;28;20111;-78
2022/05/13 02:21:33;;;;;;;13.05;10.32;;;;;;;-144.47;100.00;61586.06;5094462;28;20045;-78
2022/05/13 02:23:59;;;;;;;11.63;9.35;;;;;;;-144.47;100.00;61586.06;5094785;28;20024;-77
2022/05/13 02:26:24;;;;;;;15.45;10.00;;;;;;;-144.47;100.00;61586.06;5094184;28;20380;-78
2022/05/13 02:28:50;;;;;;;11.95;9.20;;;;;;;-144.47;100.00;61586.06;5094206;28;20499;-78
2022/05/13 02:31:16;;;;;;;11.68;10.05;;;;;;;-144.47;100.00;61586.06;5112085;28;20072;-78
2022/05/13 02:33:42;;;;;;;10.90;9.27;;;;;;;-144.47;100.00;61586.06;5112961;28;20020;-78
2022/05/13 02:36:11;;;;;;;11.68;9.40;;;;;;;-144.47;100.00;61586.06;5100789;28;20046;-78
2022/05/13 02:38:37;;;;;;;11.55;8.80;;;;;;;-144.47;100.00;61586.06;5097661;28;20055;-79
2022/05/13 02:41:11;;;;;;;10.02;9.23;;;;;;;-144.47;100.00;61586.06;5094084;28;20024;-78
2022/05/13 02:43:41;;;;;;;10.93;9.82;;;;;;;187.31;100.00;61586.06;5094144;28;20119;-78
2022/05/13 02:46:06;;;;;;;11.88;9.95;;;;;;;-144.47;100.00;61586.06;5093929;28;20444;-78
2022/05/13 02:48:32;;;;;;;14.52;10.23;;;;;;;-144.47;100.00;61586.06;5093598;28;20115;-79
2022/05/13 02:50:58;;;;;;;12.80;10.23;;;;;;;187.31;100.00;61586.06;5093670;28;20036;-79
2022/05/13 02:53:24;;;;;;;12.88;9.80;;;;;;;-144.47;100.00;61586.06;5094049;28;20032;-79
2022/05/13 02:55:50;;;;;;;13.30;10.70;;;;;;;-144.47;100.00;61586.06;5093042;28;20458;-78
2022/05/13 02:58:16;;;;;;;11.48;10.35;;;;;;;-144.47;100.00;61586.06;5093433;28;20111;-79
2022/05/13 03:00:42;;;;;;;13.10;10.50;;;;;;;-144.47;100.00;61586.06;5093056;28;20472;-78
2022/05/13 03:03:07;;;;;;;11.30;9.95;;;;;;;-144.47;100.00;61586.06;5093255;28;20039;-78
2022/05/13 03:05:34;;;;;;;13.88;10.65;;;;;;;-144.47;100.00;61586.06;5092861;28;20115;-78
2022/05/13 03:08:01;;;;;;;11.20;10.07;;;;;;;187.31;100.00;61586.06;5093381;28;20028;-77
2022/05/13 03:10:31;;;;;;;11.73;10.50;;;;;;;15.23;100.00;61586.06;5092494;28;20040;-79
2022/05/13 03:12:58;;;;;;;13.70;10.48;;;;;;;187.31;100.00;61586.06;5092832;28;20028;-78
2022/05/13 03:15:24;;;;;;;15.00;11.27;;;;;;;-144.47;100.00;61586.06;5092197;28;20146;-78
2022/05/13 03:17:50;;;;;;;13.13;11.77;;;;;;;-144.47;100.00;61586.06;5088229;28;20371;-78
2022/05/13 03:20:17;;;;;;;12.82;10.50;;;;;;;187.31;100.00;61586.06;5092195;28;20074;-77
2022/05/13 03:22:44;;;;;;;12.70;10.35;;;;;;;-144.47;100.00;61586.06;5092065;28;20044;-77
2022/05/13 03:25:10;;;;;;;13.77;11.13;;;;;;;-144.47;100.00;61586.06;5092095;28;20032;-78
2022/05/13 03:27:35;;;;;;;12.55;11.18;;;;;;;-144.47;100.00;61586.06;5092641;28;20020;-77
2022/05/13 03:30:01;;;;;;;18.75;11.77;;;;;;;-144.47;100.00;61586.06;5091617;28;20054;-77
2022/05/13 03:32:26;;;;;;;17.55;10.63;;;;;;;-144.47;100.00;61586.06;5092413;28;20483;-78
2022/05/13 03:34:52;;;;;;;15.07;10.50;;;;;;;-144.47;100.00;61586.06;5092998;28;20081;-78
2022/05/13 03:37:17;;;;;;;11.85;10.65;;;;;;;-144.47;100.00;61586.06;5092313;28;20496;-77
2022/05/13 03:39:44;;;;;;;12.98;10.93;;;;;;;187.31;100.00;61586.06;5091334;28;20107;-77
2022/05/13 03:42:09;;;;;;;11.63;10.43;;;;;;;-144.47;100.00;61586.06;5093399;28;20056;-78
2022/05/13 03:44:36;;;;;;;12.38;10.55;;;;;;;-144.47;100.00;61586.06;5092639;28;20032;-78
2022/05/13 03:47:03;;;;;;;11.50;10.40;;;;;;;187.31;100.00;61586.06;5093575;28;20099;-77
2022/05/13 03:49:28;;;;;;;15.40;10.98;;;;;;;-144.47;100.00;61586.06;5092249;28;20028;-77
2022/05/13 03:51:55;;;;;;;12.40;10.88;;;;;;;14.60;100.00;61586.06;5092320;28;20024;-78
2022/05/13 03:54:21;;;;;;;11.93;10.75;;;;;;;-144.47;100.00;61586.06;5092038;28;20039;-76
2022/05/13 03:56:46;;;;;;;11.98;10.48;;;;;;;-144.47;100.00;61586.06;5091314;28;20036;-78
2022/05/13 03:59:12;;;;;;;14.25;11.05;;;;;;;-144.47;100.00;61586.06;5091351;28;20040;-75
2022/05/13 04:01:37;;;;;;;17.80;10.68;;;;;;;-144.47;100.00;61586.06;5091864;28;20068;-78
2022/05/13 04:04:03;;;;;;;13.95;11.50;;;;;;;-144.47;100.00;61586.06;5092108;28;20111;-75
2022/05/13 04:09:13;;;;;;;12.07;10.57;;;;;;;-144.47;100.00;61586.06;5091437;28;20044;-77
2022/05/13 04:11:40;;;;;;;16.65;11.70;;;;;;;-144.47;100.00;61586.06;5090653;28;20405;-76
2022/05/13 04:16:51;;;;;;;15.38;11.80;;;;;;;14.70;100.00;61586.06;5091288;28;20039;-76
2022/05/13 04:19:18;;;;;;;16.48;12.50;;;;;;;14.77;100.00;61586.06;5091198;28;20040;-77
2022/05/13 04:21:45;;;;;;;13.00;11.55;;;;;;;14.76;100.00;61586.06;5090328;28;20123;-76
2022/05/13 04:24:17;;;;;;;16.90;11.68;;;;;;;-144.47;100.00;61586.06;5091763;28;20062;-77
2022/05/13 04:26:43;;;;;;;16.23;11.77;;;;;;;187.31;100.00;61586.06;5091131;28;20032;-75
2022/05/13 04:29:09;;;;;;;13.40;11.27;;;;;;;-144.47;100.00;61586.06;5090467;28;20054;-76
2022/05/13 04:31:37;;;;;;;15.68;12.07;;;;;;;-144.47;100.00;61586.06;5087872;28;20043;-74
2022/05/13 04:34:03;;;;;;;16.45;11.07;;;;;;;187.31;100.00;61586.06;5086732;28;20119;-75
2022/05/13 04:36:30;;;;;;;14.68;10.75;;;;;;;-144.47;100.00;61586.06;5089742;28;20086;-74
2022/05/13 04:38:56;;;;;;;13.95;11.10;;;;;;;-144.47;100.00;61586.06;5071760;28;20032;-75
2022/05/13 04:44:09;;;;;;;16.65;12.15;;;;;;;-144.47;100.00;61586.06;5090133;28;20094;-74
2022/05/13 04:46:36;;;;;;;12.43;10.45;;;;;;;-144.47;100.00;61586.06;5092173;28;20431;-75
2022/05/13 04:49:05;;;;;;;13.63;12.33;;;;;;;-144.47;100.00;61586.06;5091086;28;20380;-75
2022/05/13 04:51:31;;;;;;;19.52;11.98;;;;;;;-144.47;100.00;61586.06;5091489;28;20288;-75
2022/05/13 04:53:58;;;;;;;19.45;11.73;;;;;;;-144.47;100.00;61586.06;5090534;28;20162;-75
2022/05/13 04:56:26;;;;;;;13.98;12.35;;;;;;;-144.47;100.00;61586.06;5091706;28;20488;-76
2022/05/13 04:58:52;;;;;;;15.70;11.75;;;;;;;-144.47;100.00;61586.06;5090778;28;20036;-75
2022/05/13 05:01:20;;;;;;;13.07;11.80;;;;;;;-144.47;100.00;61586.06;5091670;28;20444;-75
2022/05/13 05:03:47;;;;;;;13.18;11.02;;;;;;;-144.47;100.00;61586.06;5089933;28;20836;-75
2022/05/13 05:06:14;;;;;;;12.95;11.65;;;;;;;-144.47;100.00;61586.06;5091868;28;20040;-76
2022/05/13 05:08:40;;;;;;;16.58;11.80;;;;;;;-144.47;100.00;61586.06;5088333;28;20051;-74
2022/05/13 05:11:07;;;;;;;19.88;12.00;;;;;;;-144.47;100.00;61586.06;5092200;28;20537;-78
2022/05/13 05:13:36;;;;;;;17.55;13.40;;;;;;;-144.47;100.00;61586.06;5090419;28;20441;-74
2022/05/13 05:16:05;;;;;;;12.98;11.55;;;;;;;-144.47;100.00;61586.06;5091510;28;20479;-75
2022/05/13 05:18:31;;;;;;;16.98;12.30;;;;;;;-144.47;100.00;61586.06;5091362;28;20552;-76
2022/05/13 05:20:57;;;;;;;16.85;12.98;;;;;;;-144.47;100.00;61586.06;5090440;28;20024;-74
2022/05/13 05:23:30;;;;;;;21.40;13.30;;;;;;;-144.47;100.00;61586.06;5090371;28;20487;-73
2022/05/13 05:25:56;;;;;;;16.77;12.93;;;;;;;16.08;100.00;61586.06;5086910;28;20036;-74
2022/05/13 05:28:21;;;;;;;22.83;13.77;;;;;;;-144.47;100.00;61586.06;5091579;28;20076;-75
2022/05/13 05:30:48;;;;;;;15.60;12.20;;;;;;;-144.47;100.00;61586.06;5089800;28;20519;-74
2022/05/13 05:33:15;;;;;;;17.52;12.48;;;;;;;-144.47;100.00;61586.06;5091331;28;20027;-75
2022/05/13 05:35:41;;;;;;;14.13;12.73;;;;;;;15.74;100.00;61586.06;5089938;28;20371;-75
2022/05/13 05:38:09;;;;;;;13.60;12.18;;;;;;;-144.47;100.00;61586.06;5091527;28;20568;-76
2022/05/13 05:40:37;;;;;;;15.10;12.82;;;;;;;-144.47;100.00;61586.06;5089746;28;20035;-75
2022/05/13 05:43:09;;;;;;;19.52;13.52;;;;;;;-144.47;100.00;61586.06;5091126;28;20036;-75
2022/05/13 05:45:38;;;;;;;19.55;14.57;;;;;;;16.08;100.00;61586.06;5090670;28;20036;-79
2022/05/13 05:48:14;;;;;;;16.35;13.63;;;;;;;-144.47;100.00;61586.06;5089881;28;20032;-76
2022/05/13 05:50:41;;;;;;;19.50;13.32;;;;;;;-144.47;100.00;61586.06;5091176;28;20756;-77
2022/05/13 05:53:07;;;;;;;17.23;12.85;;;;;;;-144.47;100.00;61586.06;5090239;28;20028;-75
2022/05/13 05:58:19;;;;;;;20.70;14.45;;;;;;;-144.47;100.00;61586.06;5087534;28;20036;-77
2022/05/13 06:00:48;;;;;;;19.60;15.40;;;;;;;-144.47;100.00;61586.06;5090012;28;20035;-77
2022/05/13 06:03:15;;;;;;;18.65;13.48;;;;;;;16.32;100.00;61586.06;5107335;28;20032;-77
2022/05/13 06:05:43;;;;;;;17.08;13.98;;;;;;;-144.47;100.00;61586.06;5109043;28;20032;-78
2022/05/13 06:08:08;;;;;;;17.35;15.18;;;;;;;-144.47;100.00;61586.06;5094308;28;20048;-78
2022/05/13 06:10:38;;;;;;;17.85;14.60;;;;;;;-144.47;100.00;61586.06;5093715;28;20091;-78
2022/05/13 06:13:05;;;;;;;19.20;13.48;;;;;;;16.64;100.00;61586.06;5091749;28;20036;-79
2022/05/13 06:15:31;;;;;;;16.95;13.73;;;;;;;-144.47;100.00;61586.06;5091345;28;20484;-79
2022/05/13 06:17:57;;;;;;;19.58;13.88;;;;;;;-144.47;100.00;61586.06;5095005;28;20207;-78
2022/05/13 06:20:30;;;;;;;20.42;14.57;;;;;;;-144.47;100.00;61586.06;5095182;28;20480;-77
2022/05/13 06:22:57;;;;;;;19.13;14.43;;;;;;;-144.47;100.00;61586.06;5091260;28;20024;-78
2022/05/13 06:25:23;;;;;;;19.17;14.38;;;;;;;-144.47;100.00;61586.06;5094597;28;20047;-77
2022/05/13 06:27:51;;;;;;;19.60;14.25;;;;;;;-144.47;100.00;61586.06;5093922;28;20028;-78
2022/05/13 06:30:26;;;;;;;15.00;13.40;;;;;;;-144.47;100.00;61586.06;5094320;28;20028;-78
2022/05/13 06:32:53;;;;;;;17.08;13.57;;;;;;;187.31;100.00;61586.06;5089434;28;20028;-78
2022/05/13 06:35:20;;;;;;;16.88;13.77;;;;;;;18.67;100.00;61586.06;5094054;28;20080;-77
2022/05/13 06:37:47;;;;;;;18.42;14.00;;;;;;;18.67;100.00;61586.06;5093394;28;20051;-78
2022/05/13 06:40:12;;;;;;;17.25;13.07;;;;;;;187.31;100.00;61586.06;5093997;28;20085;-78
2022/05/13 06:42:38;;;;;;;20.45;11.90;;;;;;;-144.47;100.00;61586.06;5093254;28;20107;-78
2022/05/13 06:45:05;;;;;;;14.85;10.85;;;;;;;-144.47;100.00;61586.06;5092287;28;20028;-78
2022/05/13 06:47:31;;;;;;;17.63;12.07;;;;;;;-144.47;100.00;61586.06;5093405;28;20460;-78
2022/05/13 06:50:00;;;;;;;13.40;11.50;;;;;;;-144.47;100.00;61586.06;5093778;28;20120;-79
2022/05/13 06:52:25;;;;;;;18.65;11.50;;;;;;;-144.47;100.00;61586.06;5093520;28;20036;-78
2022/05/13 06:54:50;;;;;;;17.73;12.35;;;;;;;-144.47;100.00;61586.06;5093194;28;20423;-78
2022/05/13 06:57:16;;;;;;;14.63;11.57;;;;;;;-144.47;100.00;61586.06;5093416;28;20064;-78
2022/05/13 06:59:41;;;;;;;14.38;10.57;;;;;;;-144.47;100.00;61586.06;5092980;28;20055;-78
2022/05/13 07:02:07;;;;;;;11.15;10.07;;;;;;;18.67;100.00;61586.06;5093432;28;20032;-78
2022/05/13 07:04:32;;;;;;;13.55;9.98;;;;;;;18.67;100.00;61586.06;5093532;28;20476;-78
2022/05/13 07:06:59;;;;;;;13.63;9.57;;;;;;;18.67;100.00;61586.06;5093361;28;20028;-79
2022/05/13 07:09:25;;;;;;;14.43;10.35;;;;;;;-144.47;100.00;61586.06;5093987;28;20036;-78
2022/05/13 07:11:51;;;;;;;28.65;11.68;;;;;;;-144.47;100.00;61586.06;5093597;28;20096;-78
2022/05/13 07:14:17;;;;;;;14.10;10.48;;;;;;;-144.47;100.00;61586.06;5092393;28;20035;-78
2022/05/13 07:16:42;;;;;;;14.25;9.63;;;;;;;187.31;100.00;61586.06;5092638;28;20036;-77
2022/05/13 07:19:08;;;;;;;9.85;8.85;;;;;;;-144.47;100.00;61586.06;5093165;28;20050;-77
2022/05/13 07:21:33;;;;;;;11.75;10.38;;;;;;;-144.47;100.00;61586.06;5092235;28;20039;-78
2022/05/13 07:23:59;;;;;;;12.00;10.70;;;;;;;-144.47;100.00;61586.06;5091827;28;20395;-77
2022/05/13 07:26:24;;;;;;;11.63;10.18;;;;;;;18.87;100.00;61586.06;5092748;28;20024;-78
2022/05/13 07:28:50;;;;;;;17.05;11.05;;;;;;;-144.47;100.00;61586.06;5092871;28;20789;-77
2022/05/13 07:31:15;;;;;;;12.90;8.13;;;;;;;-144.47;100.00;61586.06;5092393;28;20384;-77
2022/05/13 07:33:41;;;;;;;8.70;7.82;;;;;;;-144.47;100.00;61586.06;5087943;28;20032;-76
2022/05/13 07:36:06;;;;;;;8.30;7.50;;;;;;;-144.47;100.00;61586.06;5090752;28;20038;-76
2022/05/13 07:38:32;;;;;;;8.70;7.32;;;;;;;-144.47;100.00;61586.06;5092157;28;20444;-77
2022/05/13 07:41:17;;;;;;;11.65;8.68;;;;;;;-144.47;100.00;61586.06;5091357;28;20036;-77
2022/05/13 07:43:44;;;;;;;10.75;8.25;;;;;;;-144.47;100.00;61586.06;5092697;28;20142;-77
2022/05/13 07:46:10;;;;;;;13.55;8.02;;;;;;;19.38;100.00;61586.06;5092773;28;20040;-78
2022/05/13 07:48:38;;;;;;;16.20;6.75;;;;;;;-144.47;100.00;61586.06;5092219;28;20472;-77
2022/05/13 07:51:04;;;;;;;8.07;7.30;;;;;;;-144.47;100.00;61586.06;5092811;28;20031;-75
2022/05/13 07:53:29;;;;;;;9.48;7.95;;;;;;;-144.47;100.00;61586.06;5091756;28;20127;-74
2022/05/13 07:55:55;;;;;;;12.93;7.75;;;;;;;-144.47;100.00;61586.06;5092921;28;20028;-76
2022/05/13 07:58:20;;;;;;;8.35;7.55;;;;;;;187.31;100.00;61586.06;5092677;28;20393;-74
2022/05/13 08:00:46;;;;;;;11.68;8.65;;;;;;;-144.47;100.00;61586.06;5092636;28;20106;-78
2022/05/13 08:03:14;;;;;;;9.38;8.25;;;;;;;19.72;100.00;81578.03;5091936;28;20035;-75
2022/05/13 08:05:46;;;;;;;13.85;8.93;;;;;;;187.31;100.00;61586.06;5092274;28;20028;-77
2022/05/13 08:08:22;;;;;;;9.60;8.40;;;;;;;187.31;100.00;61586.06;5090666;28;20388;-76
2022/05/13 08:10:52;;;;;;;12.60;8.60;;;;;;;20.05;100.00;61586.06;5092081;28;20516;-76
2022/05/13 08:13:18;;;;;;;10.17;8.20;;;;;;;21.26;100.00;61586.06;5091830;28;20160;-76
2022/05/13 08:15:44;;;;;;;8.15;7.35;;;;;;;187.31;100.00;61586.06;5090271;28;20032;-76
2022/05/13 08:18:10;;;;;;;10.13;7.80;;;;;;;187.31;100.00;61586.06;5091574;28;20097;-76
2022/05/13 08:20:35;;;;;;;8.82;7.95;;;;;;;187.31;100.00;61586.06;5090471;28;20028;-77
2022/05/13 08:23:03;;;;;;;11.18;7.35;;;;;;;20.45;100.00;61586.06;5091326;28;20035;-75
2022/05/13 08:25:28;;;;;;;10.85;7.00;;;;;;;-144.47;100.00;61586.06;5091638;28;20046;-76
2022/05/13 08:27:54;;;;;;;12.80;8.38;;;;;;;-144.47;100.00;61586.06;5092008;28;20028;-75
2022/05/13 08:30:20;;;;;;;8.50;7.70;;;;;;;-144.47;100.00;61586.06;5088042;28;20031;-75
2022/05/13 08:32:46;;;;;;;9.82;8.18;;;;;;;-144.47;100.00;61586.06;5091406;28;20441;-75
2022/05/13 08:35:13;;;;;;;13.35;7.95;;;;;;;-144.47;100.00;61586.06;5092103;28;20032;-75
2022/05/13 08:37:44;;;;;;;11.23;7.88;;;;;;;-144.47;100.00;61586.06;5092515;28;20077;-76
2022/05/13 08:40:41;;;;;;;10.13;7.50;;;;;;;-144.47;100.00;61586.06;5092808;28;20388;-75
2022/05/13 08:43:13;;;;;;;12.13;8.80;;;;;;;-144.47;100.00;61586.06;5068472;28;20060;-77
2022/05/13 08:45:53;;;;;;;8.95;7.78;;;;;;;-144.47;100.00;61586.06;5094430;28;20365;-75
2022/05/13 08:48:31;;;;;;;12.95;9.40;;;;;;;-144.47;100.00;61586.06;5091241;28;20075;-75
2022/05/13 08:51:31;;;;;;;10.27;8.32;;;;;;;-144.47;100.00;61586.06;5088020;28;20028;-74
2022/05/13 08:54:03;;;;;;;13.13;8.20;;;;;;;-144.47;100.00;61586.06;5087350;28;20032;-75
2022/05/13 08:56:30;;;;;;;9.80;7.07;;;;;;;-144.47;100.00;61586.06;5091015;28;20054;-74
2022/05/13 08:59:03;;;;;;;9.20;7.72;;;;;;;-144.47;100.00;61586.06;5091179;28;20024;-74
2022/05/13 09:01:34;;;;;;;10.43;7.07;;;;;;;-144.47;100.00;61586.06;5091042;28;20475;-74
2022/05/13 09:04:07;;;;;;;8.43;7.57;;;;;;;-144.47;100.00;61586.06;5090643;28;20110;-73
2022/05/13 09:06:39;;;;;;;8.48;7.55;;;;;;;-144.47;100.00;61586.06;5097884;22;20076;-72
2022/05/13 09:09:09;;;;;;;10.98;7.40;;;;;;;-144.47;100.00;61586.06;5072353;28;20032;-72
2022/05/13 09:11:43;;;;;;;9.07;6.93;;;;;;;-144.47;100.00;61586.06;5069977;28;20050;-72
2022/05/13 09:14:38;;;;;;;7.85;7.20;;;;;;;-144.47;100.00;61586.06;5069368;28;20052;-72
2022/05/13 09:17:09;;;;;;;10.05;7.63;;;;;;;-144.47;100.00;61586.06;5068176;28;20045;-72
2022/05/13 09:19:37;;;;;;;11.43;7.25;;;;;;;-144.47;100.00;61586.06;5069535;28;20044;-73
2022/05/13 09:22:08;;;;;;;13.85;8.68;;;;;;;-144.47;100.00;61586.06;5069747;28;20029;-74
2022/05/13 09:24:34;;;;;;;12.30;8.32;;;;;;;-144.47;100.00;61586.06;5069318;28;20551;-73
2022/05/13 09:26:59;;;;;;;8.50;7.53;;;;;;;-144.47;100.00;61586.06;5073001;28;20119;-73
2022/05/13 09:29:38;;;;;;;12.05;7.57;;;;;;;-144.47;100.00;61586.06;5069673;28;20094;-73
2022/05/13 09:32:07;;;;;;;9.02;7.68;;;;;;;-144.47;100.00;61586.06;5070026;28;20039;-72
2022/05/13 09:35:00;;;;;;;9.35;7.70;;;;;;;-144.47;100.00;61586.06;5069038;28;20028;-73
2022/05/13 09:37:34;;;;;;;12.95;7.43;;;;;;;-144.47;100.00;61586.06;5066138;28;20111;-73
2022/05/13 09:40:23;;;;;;;8.85;6.82;;;;;;;-144.47;100.00;61586.06;5070048;28;20487;-73
2022/05/13 09:42:54;;;;;;;9.27;7.40;;;;;;;22.08;100.00;61586.06;5069752;28;20418;-73
2022/05/13 09:45:19;;;;;;;12.60;7.45;;;;;;;-144.47;100.00;61586.06;5069844;28;20428;-74
2022/05/13 09:48:18;;;;;;;8.85;6.45;;;;;;;-144.47;100.00;61586.06;5069618;28;20036;-75
2022/05/13 09:50:50;;;;;;;8.63;7.68;;;;;;;-144.47;100.00;61586.06;5017653;28;20127;-74
2022/05/13 09:53:29;;;;;;;7.93;6.35;;;;;;;-144.47;100.00;61586.06;5073701;28;20488;-73
2022/05/13 09:55:58;;;;;;;8.38;6.68;;;;;;;-144.47;100.00;61586.06;5073964;28;20123;-74
2022/05/13 09:58:48;;;;;;;9.25;6.70;;;;;;;62.74;100.00;61586.06;5074177;28;20096;-73
2022/05/13 10:01:13;;;;;;;8.27;6.70;;;;;;;-144.47;100.00;61586.06;5073031;28;20036;-73
2022/05/13 10:03:41;;;;;;;7.65;6.88;;;;;;;-144.47;100.00;61586.06;5073564;28;20040;-73
2022/05/13 10:06:09;;;;;;;11.60;6.63;;;;;;;-144.47;100.00;61586.06;5073304;28;20121;-75
2022/05/13 10:08:38;;;;;;;9.45;6.15;;;;;;;-144.47;100.00;61586.06;5073588;28;20211;-73
2022/05/13 10:14:01;;;;;;;8.48;6.45;;;;;;;-144.47;100.00;61586.06;5074052;28;20028;-73
2022/05/13 10:16:44;;;;;;;7.40;6.70;;;;;;;-144.47;100.00;61586.06;5073640;28;20106;-74
2022/05/13 10:19:17;;;;;;;7.38;6.70;;;;;;;-144.47;100.00;61586.06;5073683;28;20077;-73
2022/05/13 10:22:16;;;;;;;11.88;6.95;;;;;;;-144.47;100.00;61586.06;5073017;28;20448;-73
2022/05/13 10:25:01;;;;;;;11.10;6.37;;;;;;;-144.47;100.00;61586.06;5072286;28;20076;-74
2022/05/13 10:27:35;;;;;;;11.23;6.65;;;;;;;-144.47;100.00;61586.06;5074108;28;20290;-73
2022/05/13 10:30:09;;;;;;;6.40;5.80;;;;;;;-144.47;100.00;61586.06;5073438;28;20037;-74
2022/05/13 10:33:06;;;;;;;8.52;6.28;;;;;;;-144.47;100.00;61586.06;5073216;28;20032;-74
2022/05/13 10:36:01;;;;;;;9.10;6.32;;;;;;;-144.47;100.00;61586.06;5070691;28;20040;-74
2022/05/13 10:39:06;;;;;;;10.32;6.03;;;;;;;-144.47;100.00;61586.06;5070096;28;20197;-74
2022/05/13 10:41:48;;;;;;;9.90;6.50;;;;;;;-144.47;100.00;61586.06;4969426;28;20138;-74
2022/05/13 10:44:23;;;;;;;13.43;6.13;;;;;;;104.25;100.00;61586.06;4972189;28;20446;-74
2022/05/13 10:46:58;;;;;;;11.13;5.38;;;;;;;23.18;100.00;61586.06;4971405;28;20724;-74
2022/05/13 10:49:34;;;;;;;7.53;5.85;;;;;;;62.74;100.00;61586.06;4968966;28;20057;-74
2022/05/13 10:52:11;;;;;;;8.20;5.88;;;;;;;104.25;100.00;61586.06;4969382;28;20041;-73
2022/05/13 10:54:40;;;;;;;7.43;5.63;;;;;;;62.74;100.00;61586.06;4971995;28;20039;-73
2022/05/13 10:57:26;;;;;;;5.85;5.25;;;;;;;62.74;100.00;61586.06;4972760;28;20042;-73
2022/05/13 11:00:01;;;;;;;8.23;6.05;;;;;;;104.25;100.00;61586.06;4973132;28;20050;-74
2022/05/13 11:02:44;;;;;;;7.10;6.10;;;;;;;187.31;100.00;61586.06;4971269;28;20535;-74
2022/05/13 11:05:12;;;;;;;10.20;5.85;;;;;;;62.74;100.00;61586.06;4971781;28;20039;-73
2022/05/13 11:07:48;;;;;;;7.55;5.80;;;;;;;62.74;100.00;61586.06;4971026;28;20121;-73
2022/05/13 11:10:22;;;;;;;8.05;5.85;;;;;;;104.25;100.00;61586.06;4971790;28;20039;-73
2022/05/13 11:13:19;;;;;;;12.68;6.20;;;;;;;62.74;100.00;61586.06;4971402;28;20047;-74
2022/05/13 11:16:08;;;;;;;8.38;5.43;;;;;;;62.74;100.00;61586.06;5021025;28;20053;-73
2022/05/13 11:18:51;;;;;;;6.45;5.85;;;;;;;104.25;100.00;61586.06;5050127;28;20043;-74
2022/05/13 11:21:44;;;;;;;6.75;6.00;;;;;;;62.74;100.00;61586.06;5052432;28;20060;-74
2022/05/13 11:27:47;;;;;;;6.22;5.45;;;;;;;-144.47;100.00;61586.06;5051166;28;20078;-74
2022/05/13 11:30:17;;;;;;;5.60;5.00;;;;;;;-144.47;100.00;61586.06;5051529;28;20072;-73
2022/05/13 11:32:57;;;;;;;9.63;5.97;;;;;;;-144.47;100.00;61586.06;5058989;28;20100;-75